sensor_id;sensor_type;location;lat;lon;timestamp;P1;durP1;ratioP1;P2;durP2;ratioP2
65206;SDS011;58477;48.072;11.970;2023-07-31T00:01:14;3.70;;;1.45;;
65206;SDS011;58477;48.072;11.970;2023-07-31T00:03:39;3.92;;;1.35;;
65206;SDS011;58477;48.072;11.970;2023-07-31T00:06:05;8.50;;;1.50;;
65206;SDS011;58477;48.072;11.970;2023-07-31T00:08:30;2.15;;;1.17;;
65206;SDS011;58477;48.072;11.970;2023-07-31T00:10:56;2.15;;;1.42;;
65206;SDS011;58477;48.072;11.970;2023-07-31T00:13:21;6.10;;;1.55;;
65206;SDS011;58477;48.072;11.970;2023-07-31T00:15:47;2.35;;;1.83;;
65206;SDS011;58477;48.072;11.970;2023-07-31T00:18:12;3.20;;;1.30;;
65206;SDS011;58477;48.072;11.970;2023-07-31T00:20:38;2.13;;;1.42;;
65206;SDS011;58477;48.072;11.970;2023-07-31T00:23:03;4.15;;;1.38;;
65206;SDS011;58477;48.072;11.970;2023-07-31T00:25:28;1.45;;;1.35;;
65206;SDS011;58477;48.072;11.970;2023-07-31T00:27:54;4.85;;;1.35;;
65206;SDS011;58477;48.072;11.970;2023-07-31T00:30:19;1.45;;;1.35;;
65206;SDS011;58477;48.072;11.970;2023-07-31T00:32:45;2.00;;;1.30;;
65206;SDS011;58477;48.072;11.970;2023-07-31T00:35:10;4.60;;;1.73;;
65206;SDS011;58477;48.072;11.970;2023-07-31T00:37:35;3.47;;;1.58;;
65206;SDS011;58477;48.072;11.970;2023-07-31T00:40:01;4.15;;;1.70;;
65206;SDS011;58477;48.072;11.970;2023-07-31T00:42:28;4.63;;;1.70;;
65206;SDS011;58477;48.072;11.970;2023-07-31T00:44:54;1.98;;;1.40;;
65206;SDS011;58477;48.072;11.970;2023-07-31T00:47:20;2.50;;;1.60;;
65206;SDS011;58477;48.072;11.970;2023-07-31T00:49:45;4.63;;;1.70;;
65206;SDS011;58477;48.072;11.970;2023-07-31T00:52:11;3.22;;;1.45;;
65206;SDS011;58477;48.072;11.970;2023-07-31T00:54:36;4.93;;;1.60;;
65206;SDS011;58477;48.072;11.970;2023-07-31T00:57:02;2.65;;;1.50;;
65206;SDS011;58477;48.072;11.970;2023-07-31T00:59:28;2.65;;;1.55;;
65206;SDS011;58477;48.072;11.970;2023-07-31T01:01:53;2.05;;;1.70;;
65206;SDS011;58477;48.072;11.970;2023-07-31T01:04:20;2.92;;;1.80;;
65206;SDS011;58477;48.072;11.970;2023-07-31T01:06:58;1.83;;;1.52;;
65206;SDS011;58477;48.072;11.970;2023-07-31T01:09:37;1.73;;;1.63;;
65206;SDS011;58477;48.072;11.970;2023-07-31T01:14:37;2.40;;;1.75;;
65206;SDS011;58477;48.072;11.970;2023-07-31T01:17:03;3.33;;;1.70;;
65206;SDS011;58477;48.072;11.970;2023-07-31T01:19:29;1.92;;;1.52;;
65206;SDS011;58477;48.072;11.970;2023-07-31T01:26:49;2.83;;;1.50;;
65206;SDS011;58477;48.072;11.970;2023-07-31T01:29:22;1.55;;;1.33;;
65206;SDS011;58477;48.072;11.970;2023-07-31T01:31:55;1.88;;;1.50;;
65206;SDS011;58477;48.072;11.970;2023-07-31T01:34:22;3.63;;;1.58;;
65206;SDS011;58477;48.072;11.970;2023-07-31T01:36:48;2.15;;;1.50;;
65206;SDS011;58477;48.072;11.970;2023-07-31T01:39:14;2.28;;;1.65;;
65206;SDS011;58477;48.072;11.970;2023-07-31T01:41:40;2.33;;;1.63;;
65206;SDS011;58477;48.072;11.970;2023-07-31T01:44:06;3.15;;;1.70;;
65206;SDS011;58477;48.072;11.970;2023-07-31T01:46:31;2.22;;;1.42;;
65206;SDS011;58477;48.072;11.970;2023-07-31T01:48:57;1.77;;;1.42;;
65206;SDS011;58477;48.072;11.970;2023-07-31T01:51:22;1.90;;;1.60;;
65206;SDS011;58477;48.072;11.970;2023-07-31T01:53:48;1.52;;;1.40;;
65206;SDS011;58477;48.072;11.970;2023-07-31T01:56:13;2.08;;;1.50;;
65206;SDS011;58477;48.072;11.970;2023-07-31T01:58:39;3.10;;;1.75;;
65206;SDS011;58477;48.072;11.970;2023-07-31T02:01:04;1.73;;;1.50;;
65206;SDS011;58477;48.072;11.970;2023-07-31T02:03:33;2.28;;;1.80;;
65206;SDS011;58477;48.072;11.970;2023-07-31T02:05:58;5.78;;;2.20;;
65206;SDS011;58477;48.072;11.970;2023-07-31T02:08:24;2.25;;;1.48;;
65206;SDS011;58477;48.072;11.970;2023-07-31T02:10:50;4.32;;;1.90;;
65206;SDS011;58477;48.072;11.970;2023-07-31T02:13:16;1.55;;;1.45;;
65206;SDS011;58477;48.072;11.970;2023-07-31T02:15:42;4.72;;;2.03;;
65206;SDS011;58477;48.072;11.970;2023-07-31T02:18:08;2.20;;;1.80;;
65206;SDS011;58477;48.072;11.970;2023-07-31T02:20:34;3.33;;;1.75;;
65206;SDS011;58477;48.072;11.970;2023-07-31T02:23:01;5.25;;;2.13;;
65206;SDS011;58477;48.072;11.970;2023-07-31T02:25:26;3.83;;;1.90;;
65206;SDS011;58477;48.072;11.970;2023-07-31T02:27:52;2.03;;;1.83;;
65206;SDS011;58477;48.072;11.970;2023-07-31T02:30:17;2.70;;;2.05;;
65206;SDS011;58477;48.072;11.970;2023-07-31T02:32:43;2.22;;;2.00;;
65206;SDS011;58477;48.072;11.970;2023-07-31T02:35:09;3.85;;;1.90;;
65206;SDS011;58477;48.072;11.970;2023-07-31T02:37:35;2.55;;;2.00;;
65206;SDS011;58477;48.072;11.970;2023-07-31T02:40:01;6.53;;;2.55;;
65206;SDS011;58477;48.072;11.970;2023-07-31T02:42:27;4.13;;;1.95;;
65206;SDS011;58477;48.072;11.970;2023-07-31T02:44:53;2.45;;;1.85;;
65206;SDS011;58477;48.072;11.970;2023-07-31T02:47:21;2.47;;;1.63;;
65206;SDS011;58477;48.072;11.970;2023-07-31T02:49:47;7.47;;;1.77;;
65206;SDS011;58477;48.072;11.970;2023-07-31T02:52:13;3.03;;;1.60;;
65206;SDS011;58477;48.072;11.970;2023-07-31T02:54:38;4.97;;;1.52;;
65206;SDS011;58477;48.072;11.970;2023-07-31T02:57:04;5.50;;;2.10;;
65206;SDS011;58477;48.072;11.970;2023-07-31T02:59:29;2.60;;;1.98;;
65206;SDS011;58477;48.072;11.970;2023-07-31T03:01:55;4.30;;;2.00;;
65206;SDS011;58477;48.072;11.970;2023-07-31T03:04:20;3.20;;;1.88;;
65206;SDS011;58477;48.072;11.970;2023-07-31T03:06:46;3.28;;;1.90;;
65206;SDS011;58477;48.072;11.970;2023-07-31T03:09:11;2.75;;;2.00;;
65206;SDS011;58477;48.072;11.970;2023-07-31T03:11:37;4.55;;;2.05;;
65206;SDS011;58477;48.072;11.970;2023-07-31T03:14:03;5.50;;;1.90;;
65206;SDS011;58477;48.072;11.970;2023-07-31T03:16:28;4.85;;;2.20;;
65206;SDS011;58477;48.072;11.970;2023-07-31T03:18:54;2.08;;;1.90;;
65206;SDS011;58477;48.072;11.970;2023-07-31T03:21:19;3.38;;;2.25;;
65206;SDS011;58477;48.072;11.970;2023-07-31T03:23:45;3.55;;;2.00;;
65206;SDS011;58477;48.072;11.970;2023-07-31T03:26:10;2.42;;;2.22;;
65206;SDS011;58477;48.072;11.970;2023-07-31T03:28:35;2.67;;;1.92;;
65206;SDS011;58477;48.072;11.970;2023-07-31T03:31:01;6.22;;;2.13;;
65206;SDS011;58477;48.072;11.970;2023-07-31T03:33:28;3.30;;;1.95;;
65206;SDS011;58477;48.072;11.970;2023-07-31T03:35:54;2.17;;;1.70;;
65206;SDS011;58477;48.072;11.970;2023-07-31T03:38:20;8.55;;;2.20;;
65206;SDS011;58477;48.072;11.970;2023-07-31T03:40:47;3.40;;;1.65;;
65206;SDS011;58477;48.072;11.970;2023-07-31T03:43:12;2.97;;;1.70;;
65206;SDS011;58477;48.072;11.970;2023-07-31T03:45:38;2.97;;;1.80;;
65206;SDS011;58477;48.072;11.970;2023-07-31T03:48:04;2.30;;;1.85;;
65206;SDS011;58477;48.072;11.970;2023-07-31T03:50:30;5.25;;;2.65;;
65206;SDS011;58477;48.072;11.970;2023-07-31T03:52:55;2.85;;;1.73;;
65206;SDS011;58477;48.072;11.970;2023-07-31T03:55:21;6.63;;;2.08;;
65206;SDS011;58477;48.072;11.970;2023-07-31T03:57:47;4.35;;;1.83;;
65206;SDS011;58477;48.072;11.970;2023-07-31T04:00:12;4.18;;;2.40;;
65206;SDS011;58477;48.072;11.970;2023-07-31T04:02:38;6.50;;;1.92;;
65206;SDS011;58477;48.072;11.970;2023-07-31T04:05:03;3.03;;;2.00;;
65206;SDS011;58477;48.072;11.970;2023-07-31T04:07:29;4.72;;;2.17;;
65206;SDS011;58477;48.072;11.970;2023-07-31T04:09:55;7.72;;;1.90;;
65206;SDS011;58477;48.072;11.970;2023-07-31T04:12:20;8.85;;;1.95;;
65206;SDS011;58477;48.072;11.970;2023-07-31T04:14:45;5.43;;;1.88;;
65206;SDS011;58477;48.072;11.970;2023-07-31T04:17:11;2.60;;;1.70;;
65206;SDS011;58477;48.072;11.970;2023-07-31T04:19:36;4.32;;;1.95;;
65206;SDS011;58477;48.072;11.970;2023-07-31T04:22:01;2.30;;;1.80;;
65206;SDS011;58477;48.072;11.970;2023-07-31T04:24:27;2.72;;;1.75;;
65206;SDS011;58477;48.072;11.970;2023-07-31T04:26:53;3.40;;;1.98;;
65206;SDS011;58477;48.072;11.970;2023-07-31T04:29:19;3.45;;;2.22;;
65206;SDS011;58477;48.072;11.970;2023-07-31T04:31:44;3.35;;;2.00;;
65206;SDS011;58477;48.072;11.970;2023-07-31T04:34:10;5.50;;;1.95;;
65206;SDS011;58477;48.072;11.970;2023-07-31T04:36:36;7.50;;;2.35;;
65206;SDS011;58477;48.072;11.970;2023-07-31T04:39:02;2.70;;;2.10;;
65206;SDS011;58477;48.072;11.970;2023-07-31T04:41:28;3.58;;;2.13;;
65206;SDS011;58477;48.072;11.970;2023-07-31T04:43:53;1.98;;;1.80;;
65206;SDS011;58477;48.072;11.970;2023-07-31T04:46:19;3.20;;;1.80;;
65206;SDS011;58477;48.072;11.970;2023-07-31T04:48:44;3.88;;;2.00;;
65206;SDS011;58477;48.072;11.970;2023-07-31T04:51:09;5.00;;;2.13;;
65206;SDS011;58477;48.072;11.970;2023-07-31T04:53:35;2.60;;;2.00;;
65206;SDS011;58477;48.072;11.970;2023-07-31T04:56:01;2.70;;;1.98;;
65206;SDS011;58477;48.072;11.970;2023-07-31T04:58:26;4.13;;;2.40;;
65206;SDS011;58477;48.072;11.970;2023-07-31T05:00:52;2.58;;;2.00;;
65206;SDS011;58477;48.072;11.970;2023-07-31T05:03:17;5.30;;;2.20;;
65206;SDS011;58477;48.072;11.970;2023-07-31T05:05:43;7.53;;;2.00;;
65206;SDS011;58477;48.072;11.970;2023-07-31T05:08:08;3.83;;;1.90;;
65206;SDS011;58477;48.072;11.970;2023-07-31T05:10:34;4.38;;;2.22;;
65206;SDS011;58477;48.072;11.970;2023-07-31T05:12:59;2.10;;;1.60;;
65206;SDS011;58477;48.072;11.970;2023-07-31T05:15:25;1.90;;;1.70;;
65206;SDS011;58477;48.072;11.970;2023-07-31T05:17:50;3.78;;;2.00;;
65206;SDS011;58477;48.072;11.970;2023-07-31T05:20:16;4.45;;;1.92;;
65206;SDS011;58477;48.072;11.970;2023-07-31T05:22:41;5.43;;;1.90;;
65206;SDS011;58477;48.072;11.970;2023-07-31T05:25:07;2.67;;;1.40;;
65206;SDS011;58477;48.072;11.970;2023-07-31T05:27:35;2.50;;;1.80;;
65206;SDS011;58477;48.072;11.970;2023-07-31T05:30:01;2.53;;;1.70;;
65206;SDS011;58477;48.072;11.970;2023-07-31T05:32:27;2.60;;;1.75;;
65206;SDS011;58477;48.072;11.970;2023-07-31T05:34:52;5.90;;;1.70;;
65206;SDS011;58477;48.072;11.970;2023-07-31T05:37:18;4.65;;;1.90;;
65206;SDS011;58477;48.072;11.970;2023-07-31T05:39:44;3.33;;;1.40;;
65206;SDS011;58477;48.072;11.970;2023-07-31T05:42:09;4.13;;;1.60;;
65206;SDS011;58477;48.072;11.970;2023-07-31T05:44:35;2.53;;;1.70;;
65206;SDS011;58477;48.072;11.970;2023-07-31T05:47:01;4.10;;;1.52;;
65206;SDS011;58477;48.072;11.970;2023-07-31T05:49:26;2.70;;;1.50;;
65206;SDS011;58477;48.072;11.970;2023-07-31T05:51:51;1.70;;;1.45;;
65206;SDS011;58477;48.072;11.970;2023-07-31T05:54:17;4.30;;;1.48;;
65206;SDS011;58477;48.072;11.970;2023-07-31T05:56:43;2.35;;;1.50;;
65206;SDS011;58477;48.072;11.970;2023-07-31T05:59:08;4.13;;;1.45;;
65206;SDS011;58477;48.072;11.970;2023-07-31T06:01:35;4.53;;;1.73;;
65206;SDS011;58477;48.072;11.970;2023-07-31T06:04:00;1.77;;;1.33;;
65206;SDS011;58477;48.072;11.970;2023-07-31T06:06:27;4.50;;;1.40;;
65206;SDS011;58477;48.072;11.970;2023-07-31T06:08:53;1.98;;;1.30;;
65206;SDS011;58477;48.072;11.970;2023-07-31T06:11:19;2.15;;;1.52;;
65206;SDS011;58477;48.072;11.970;2023-07-31T06:13:45;1.75;;;1.48;;
65206;SDS011;58477;48.072;11.970;2023-07-31T06:16:13;2.80;;;1.30;;
65206;SDS011;58477;48.072;11.970;2023-07-31T06:18:38;4.72;;;1.30;;
65206;SDS011;58477;48.072;11.970;2023-07-31T06:21:04;2.83;;;1.58;;
65206;SDS011;58477;48.072;11.970;2023-07-31T06:23:30;4.00;;;1.50;;
65206;SDS011;58477;48.072;11.970;2023-07-31T06:25:55;5.68;;;1.55;;
65206;SDS011;58477;48.072;11.970;2023-07-31T06:28:21;1.40;;;1.30;;
65206;SDS011;58477;48.072;11.970;2023-07-31T06:30:46;2.65;;;1.17;;
65206;SDS011;58477;48.072;11.970;2023-07-31T06:33:12;1.60;;;1.27;;
65206;SDS011;58477;48.072;11.970;2023-07-31T06:35:37;3.53;;;1.42;;
65206;SDS011;58477;48.072;11.970;2023-07-31T06:38:03;1.77;;;1.35;;
65206;SDS011;58477;48.072;11.970;2023-07-31T06:40:29;2.15;;;1.42;;
65206;SDS011;58477;48.072;11.970;2023-07-31T06:42:55;4.45;;;1.55;;
65206;SDS011;58477;48.072;11.970;2023-07-31T06:45:20;3.10;;;1.35;;
65206;SDS011;58477;48.072;11.970;2023-07-31T06:47:47;3.70;;;1.48;;
65206;SDS011;58477;48.072;11.970;2023-07-31T06:50:12;3.70;;;1.38;;
65206;SDS011;58477;48.072;11.970;2023-07-31T06:52:37;1.42;;;1.20;;
65206;SDS011;58477;48.072;11.970;2023-07-31T06:55:04;1.98;;;1.02;;
65206;SDS011;58477;48.072;11.970;2023-07-31T06:57:43;3.13;;;1.20;;
65206;SDS011;58477;48.072;11.970;2023-07-31T07:00:09;1.90;;;1.27;;
65206;SDS011;58477;48.072;11.970;2023-07-31T07:02:35;2.00;;;0.98;;
65206;SDS011;58477;48.072;11.970;2023-07-31T07:05:00;1.85;;;1.10;;
65206;SDS011;58477;48.072;11.970;2023-07-31T07:07:26;5.15;;;1.40;;
65206;SDS011;58477;48.072;11.970;2023-07-31T07:09:51;1.35;;;1.17;;
65206;SDS011;58477;48.072;11.970;2023-07-31T07:12:17;2.53;;;1.27;;
65206;SDS011;58477;48.072;11.970;2023-07-31T07:14:42;1.40;;;1.17;;
65206;SDS011;58477;48.072;11.970;2023-07-31T07:17:08;1.33;;;1.23;;
65206;SDS011;58477;48.072;11.970;2023-07-31T07:19:33;1.05;;;0.90;;
65206;SDS011;58477;48.072;11.970;2023-07-31T07:21:58;3.10;;;1.48;;
65206;SDS011;58477;48.072;11.970;2023-07-31T07:24:26;2.90;;;1.25;;
65206;SDS011;58477;48.072;11.970;2023-07-31T07:26:52;1.33;;;1.10;;
65206;SDS011;58477;48.072;11.970;2023-07-31T07:29:17;1.02;;;0.90;;
65206;SDS011;58477;48.072;11.970;2023-07-31T07:31:43;1.88;;;1.10;;
65206;SDS011;58477;48.072;11.970;2023-07-31T07:34:08;2.35;;;1.20;;
65206;SDS011;58477;48.072;11.970;2023-07-31T07:36:34;1.45;;;1.02;;
65206;SDS011;58477;48.072;11.970;2023-07-31T07:38:59;2.15;;;1.15;;
65206;SDS011;58477;48.072;11.970;2023-07-31T07:41:25;1.17;;;0.85;;
65206;SDS011;58477;48.072;11.970;2023-07-31T07:43:50;1.30;;;1.15;;
65206;SDS011;58477;48.072;11.970;2023-07-31T07:46:16;1.40;;;1.02;;
65206;SDS011;58477;48.072;11.970;2023-07-31T07:48:42;1.55;;;1.13;;
65206;SDS011;58477;48.072;11.970;2023-07-31T07:51:07;2.25;;;1.00;;
65206;SDS011;58477;48.072;11.970;2023-07-31T07:53:32;2.65;;;1.40;;
65206;SDS011;58477;48.072;11.970;2023-07-31T07:55:58;1.88;;;1.10;;
65206;SDS011;58477;48.072;11.970;2023-07-31T07:58:23;1.70;;;1.10;;
65206;SDS011;58477;48.072;11.970;2023-07-31T08:00:50;2.33;;;1.10;;
65206;SDS011;58477;48.072;11.970;2023-07-31T08:03:16;3.63;;;0.80;;
65206;SDS011;58477;48.072;11.970;2023-07-31T08:05:42;2.67;;;1.20;;
65206;SDS011;58477;48.072;11.970;2023-07-31T08:08:07;1.55;;;0.90;;
65206;SDS011;58477;48.072;11.970;2023-07-31T08:10:33;1.60;;;0.98;;
65206;SDS011;58477;48.072;11.970;2023-07-31T08:12:58;1.70;;;1.10;;
65206;SDS011;58477;48.072;11.970;2023-07-31T08:15:24;2.95;;;1.33;;
65206;SDS011;58477;48.072;11.970;2023-07-31T08:17:49;1.77;;;1.17;;
65206;SDS011;58477;48.072;11.970;2023-07-31T08:20:15;1.15;;;1.05;;
65206;SDS011;58477;48.072;11.970;2023-07-31T08:22:40;2.22;;;0.93;;
65206;SDS011;58477;48.072;11.970;2023-07-31T08:25:06;3.50;;;1.15;;
65206;SDS011;58477;48.072;11.970;2023-07-31T08:27:32;1.42;;;1.10;;
65206;SDS011;58477;48.072;11.970;2023-07-31T08:29:57;2.70;;;1.00;;
65206;SDS011;58477;48.072;11.970;2023-07-31T08:32:22;3.13;;;1.02;;
65206;SDS011;58477;48.072;11.970;2023-07-31T08:34:48;1.33;;;1.20;;
65206;SDS011;58477;48.072;11.970;2023-07-31T08:37:14;1.15;;;1.05;;
65206;SDS011;58477;48.072;11.970;2023-07-31T08:39:39;1.58;;;1.05;;
65206;SDS011;58477;48.072;11.970;2023-07-31T08:42:07;1.42;;;1.08;;
65206;SDS011;58477;48.072;11.970;2023-07-31T08:44:34;3.20;;;1.13;;
65206;SDS011;58477;48.072;11.970;2023-07-31T08:47:00;1.42;;;0.90;;
65206;SDS011;58477;48.072;11.970;2023-07-31T08:49:26;2.15;;;1.08;;
65206;SDS011;58477;48.072;11.970;2023-07-31T08:51:52;1.65;;;1.25;;
65206;SDS011;58477;48.072;11.970;2023-07-31T08:54:19;1.27;;;1.02;;
65206;SDS011;58477;48.072;11.970;2023-07-31T08:56:45;1.65;;;1.13;;
65206;SDS011;58477;48.072;11.970;2023-07-31T08:59:11;1.15;;;1.05;;
65206;SDS011;58477;48.072;11.970;2023-07-31T09:01:40;2.20;;;1.30;;
65206;SDS011;58477;48.072;11.970;2023-07-31T09:04:09;2.50;;;1.20;;
65206;SDS011;58477;48.072;11.970;2023-07-31T09:06:35;3.00;;;1.30;;
65206;SDS011;58477;48.072;11.970;2023-07-31T09:09:02;1.73;;;1.42;;
65206;SDS011;58477;48.072;11.970;2023-07-31T09:11:28;1.40;;;1.10;;
65206;SDS011;58477;48.072;11.970;2023-07-31T09:13:54;2.50;;;1.20;;
65206;SDS011;58477;48.072;11.970;2023-07-31T09:16:28;1.85;;;1.08;;
65206;SDS011;58477;48.072;11.970;2023-07-31T09:18:57;1.67;;;1.08;;
65206;SDS011;58477;48.072;11.970;2023-07-31T09:21:24;2.00;;;1.27;;
65206;SDS011;58477;48.072;11.970;2023-07-31T09:23:50;3.00;;;1.27;;
65206;SDS011;58477;48.072;11.970;2023-07-31T09:26:28;1.00;;;0.90;;
65206;SDS011;58477;48.072;11.970;2023-07-31T09:28:55;1.45;;;1.02;;
65206;SDS011;58477;48.072;11.970;2023-07-31T09:31:38;2.97;;;1.27;;
65206;SDS011;58477;48.072;11.970;2023-07-31T09:34:05;2.10;;;1.20;;
65206;SDS011;58477;48.072;11.970;2023-07-31T09:36:30;2.33;;;1.10;;
65206;SDS011;58477;48.072;11.970;2023-07-31T09:39:01;3.80;;;1.10;;
65206;SDS011;58477;48.072;11.970;2023-07-31T09:41:28;4.97;;;1.30;;
65206;SDS011;58477;48.072;11.970;2023-07-31T09:43:53;2.00;;;1.30;;
65206;SDS011;58477;48.072;11.970;2023-07-31T09:46:20;1.60;;;0.95;;
65206;SDS011;58477;48.072;11.970;2023-07-31T09:48:46;2.00;;;1.20;;
65206;SDS011;58477;48.072;11.970;2023-07-31T09:51:12;2.33;;;1.25;;
65206;SDS011;58477;48.072;11.970;2023-07-31T09:53:37;1.52;;;1.10;;
65206;SDS011;58477;48.072;11.970;2023-07-31T09:56:06;1.98;;;1.30;;
65206;SDS011;58477;48.072;11.970;2023-07-31T09:58:32;2.25;;;1.40;;
65206;SDS011;58477;48.072;11.970;2023-07-31T10:01:00;1.90;;;1.27;;
65206;SDS011;58477;48.072;11.970;2023-07-31T10:03:26;1.73;;;1.30;;
65206;SDS011;58477;48.072;11.970;2023-07-31T10:05:55;1.63;;;1.10;;
65206;SDS011;58477;48.072;11.970;2023-07-31T10:08:23;1.30;;;1.10;;
65206;SDS011;58477;48.072;11.970;2023-07-31T10:10:55;5.68;;;1.40;;
65206;SDS011;58477;48.072;11.970;2023-07-31T10:13:23;1.75;;;1.40;;
65206;SDS011;58477;48.072;11.970;2023-07-31T10:15:50;1.80;;;1.10;;
65206;SDS011;58477;48.072;11.970;2023-07-31T10:18:16;1.48;;;1.38;;
65206;SDS011;58477;48.072;11.970;2023-07-31T10:20:44;1.95;;;1.20;;
65206;SDS011;58477;48.072;11.970;2023-07-31T10:23:10;2.60;;;1.40;;
65206;SDS011;58477;48.072;11.970;2023-07-31T10:25:36;2.58;;;1.23;;
65206;SDS011;58477;48.072;11.970;2023-07-31T10:28:03;2.95;;;1.30;;
65206;SDS011;58477;48.072;11.970;2023-07-31T10:30:29;1.75;;;1.15;;
65206;SDS011;58477;48.072;11.970;2023-07-31T10:32:57;2.53;;;1.45;;
65206;SDS011;58477;48.072;11.970;2023-07-31T10:35:25;1.55;;;1.20;;
65206;SDS011;58477;48.072;11.970;2023-07-31T10:37:50;4.43;;;2.00;;
65206;SDS011;58477;48.072;11.970;2023-07-31T10:42:53;2.47;;;1.20;;
65206;SDS011;58477;48.072;11.970;2023-07-31T10:45:24;3.78;;;1.23;;
65206;SDS011;58477;48.072;11.970;2023-07-31T10:47:51;2.05;;;1.20;;
65206;SDS011;58477;48.072;11.970;2023-07-31T10:50:25;2.35;;;1.25;;
65206;SDS011;58477;48.072;11.970;2023-07-31T10:52:51;1.00;;;0.90;;
65206;SDS011;58477;48.072;11.970;2023-07-31T10:58:07;1.77;;;1.00;;
65206;SDS011;58477;48.072;11.970;2023-07-31T11:00:42;1.48;;;1.15;;
65206;SDS011;58477;48.072;11.970;2023-07-31T11:03:16;3.43;;;1.20;;
65206;SDS011;58477;48.072;11.970;2023-07-31T11:08:19;1.55;;;1.02;;
65206;SDS011;58477;48.072;11.970;2023-07-31T11:10:50;2.58;;;1.20;;
65206;SDS011;58477;48.072;11.970;2023-07-31T11:13:29;1.00;;;0.90;;
65206;SDS011;58477;48.072;11.970;2023-07-31T11:15:59;3.00;;;1.25;;
65206;SDS011;58477;48.072;11.970;2023-07-31T11:18:26;2.40;;;1.10;;
65206;SDS011;58477;48.072;11.970;2023-07-31T11:20:52;2.65;;;1.20;;
65206;SDS011;58477;48.072;11.970;2023-07-31T11:23:18;1.48;;;1.25;;
65206;SDS011;58477;48.072;11.970;2023-07-31T11:25:45;1.85;;;1.10;;
65206;SDS011;58477;48.072;11.970;2023-07-31T11:28:14;2.28;;;1.30;;
65206;SDS011;58477;48.072;11.970;2023-07-31T11:30:42;1.98;;;1.13;;
65206;SDS011;58477;48.072;11.970;2023-07-31T11:33:09;1.25;;;1.00;;
65206;SDS011;58477;48.072;11.970;2023-07-31T11:35:40;2.15;;;0.90;;
65206;SDS011;58477;48.072;11.970;2023-07-31T11:38:24;1.17;;;1.00;;
65206;SDS011;58477;48.072;11.970;2023-07-31T11:40:51;1.38;;;1.13;;
65206;SDS011;58477;48.072;11.970;2023-07-31T11:43:18;2.55;;;1.25;;
65206;SDS011;58477;48.072;11.970;2023-07-31T11:45:45;3.03;;;0.93;;
65206;SDS011;58477;48.072;11.970;2023-07-31T11:48:18;1.20;;;1.00;;
65206;SDS011;58477;48.072;11.970;2023-07-31T11:50:50;1.48;;;1.02;;
65206;SDS011;58477;48.072;11.970;2023-07-31T11:53:17;1.77;;;0.90;;
65206;SDS011;58477;48.072;11.970;2023-07-31T11:55:45;1.58;;;1.15;;
65206;SDS011;58477;48.072;11.970;2023-07-31T11:58:11;2.10;;;1.10;;
65206;SDS011;58477;48.072;11.970;2023-07-31T12:00:40;1.95;;;1.13;;
65206;SDS011;58477;48.072;11.970;2023-07-31T12:03:06;1.20;;;1.00;;
65206;SDS011;58477;48.072;11.970;2023-07-31T12:05:31;1.90;;;1.10;;
65206;SDS011;58477;48.072;11.970;2023-07-31T12:07:57;1.45;;;1.10;;
65206;SDS011;58477;48.072;11.970;2023-07-31T12:13:03;5.15;;;1.25;;
65206;SDS011;58477;48.072;11.970;2023-07-31T12:15:45;2.60;;;1.25;;
65206;SDS011;58477;48.072;11.970;2023-07-31T12:18:11;1.40;;;1.30;;
65206;SDS011;58477;48.072;11.970;2023-07-31T12:20:42;4.25;;;1.20;;
65206;SDS011;58477;48.072;11.970;2023-07-31T12:23:13;4.22;;;1.25;;
65206;SDS011;58477;48.072;11.970;2023-07-31T12:25:59;4.25;;;1.20;;
65206;SDS011;58477;48.072;11.970;2023-07-31T12:28:25;3.90;;;0.98;;
65206;SDS011;58477;48.072;11.970;2023-07-31T12:30:51;3.33;;;1.15;;
65206;SDS011;58477;48.072;11.970;2023-07-31T12:33:16;5.85;;;1.30;;
65206;SDS011;58477;48.072;11.970;2023-07-31T12:35:44;1.90;;;1.20;;
65206;SDS011;58477;48.072;11.970;2023-07-31T12:38:11;1.23;;;1.13;;
65206;SDS011;58477;48.072;11.970;2023-07-31T12:40:38;2.15;;;1.00;;
65206;SDS011;58477;48.072;11.970;2023-07-31T12:43:05;1.95;;;1.20;;
65206;SDS011;58477;48.072;11.970;2023-07-31T12:45:31;2.05;;;1.13;;
65206;SDS011;58477;48.072;11.970;2023-07-31T12:47:57;2.65;;;1.10;;
65206;SDS011;58477;48.072;11.970;2023-07-31T12:50:23;3.38;;;1.10;;
65206;SDS011;58477;48.072;11.970;2023-07-31T12:52:49;1.98;;;1.00;;
65206;SDS011;58477;48.072;11.970;2023-07-31T12:55:14;1.73;;;1.10;;
65206;SDS011;58477;48.072;11.970;2023-07-31T12:57:40;2.78;;;1.50;;
65206;SDS011;58477;48.072;11.970;2023-07-31T13:00:07;1.95;;;1.05;;
65206;SDS011;58477;48.072;11.970;2023-07-31T13:02:33;13.13;;;1.95;;
65206;SDS011;58477;48.072;11.970;2023-07-31T13:04:58;1.98;;;1.20;;
65206;SDS011;58477;48.072;11.970;2023-07-31T13:07:24;1.98;;;1.42;;
65206;SDS011;58477;48.072;11.970;2023-07-31T13:09:50;1.98;;;1.20;;
65206;SDS011;58477;48.072;11.970;2023-07-31T13:12:16;2.25;;;1.35;;
65206;SDS011;58477;48.072;11.970;2023-07-31T13:14:41;3.45;;;1.02;;
65206;SDS011;58477;48.072;11.970;2023-07-31T13:17:09;1.20;;;1.10;;
65206;SDS011;58477;48.072;11.970;2023-07-31T13:19:34;4.57;;;0.98;;
65206;SDS011;58477;48.072;11.970;2023-07-31T13:22:01;1.45;;;1.20;;
65206;SDS011;58477;48.072;11.970;2023-07-31T13:24:26;1.70;;;1.10;;
65206;SDS011;58477;48.072;11.970;2023-07-31T13:26:51;1.15;;;1.00;;
65206;SDS011;58477;48.072;11.970;2023-07-31T13:29:17;7.65;;;1.30;;
65206;SDS011;58477;48.072;11.970;2023-07-31T13:31:43;1.30;;;1.20;;
65206;SDS011;58477;48.072;11.970;2023-07-31T13:34:08;3.15;;;1.30;;
65206;SDS011;58477;48.072;11.970;2023-07-31T13:36:34;2.03;;;1.27;;
65206;SDS011;58477;48.072;11.970;2023-07-31T13:39:02;1.27;;;1.10;;
65206;SDS011;58477;48.072;11.970;2023-07-31T13:41:27;1.85;;;1.10;;
65206;SDS011;58477;48.072;11.970;2023-07-31T13:43:53;1.85;;;1.00;;
65206;SDS011;58477;48.072;11.970;2023-07-31T13:46:18;1.23;;;0.93;;
65206;SDS011;58477;48.072;11.970;2023-07-31T13:48:43;1.02;;;0.90;;
65206;SDS011;58477;48.072;11.970;2023-07-31T13:51:09;2.17;;;1.17;;
65206;SDS011;58477;48.072;11.970;2023-07-31T13:53:34;1.67;;;0.98;;
65206;SDS011;58477;48.072;11.970;2023-07-31T13:56:00;3.10;;;0.70;;
65206;SDS011;58477;48.072;11.970;2023-07-31T13:58:26;1.45;;;0.90;;
65206;SDS011;58477;48.072;11.970;2023-07-31T14:00:51;2.47;;;1.10;;
65206;SDS011;58477;48.072;11.970;2023-07-31T14:03:16;1.42;;;1.08;;
65206;SDS011;58477;48.072;11.970;2023-07-31T14:05:42;1.08;;;0.98;;
65206;SDS011;58477;48.072;11.970;2023-07-31T14:08:07;2.60;;;1.25;;
65206;SDS011;58477;48.072;11.970;2023-07-31T14:10:33;1.92;;;1.00;;
65206;SDS011;58477;48.072;11.970;2023-07-31T14:12:58;2.00;;;1.08;;
65206;SDS011;58477;48.072;11.970;2023-07-31T14:15:23;5.40;;;1.65;;
65206;SDS011;58477;48.072;11.970;2023-07-31T14:17:49;1.20;;;0.98;;
65206;SDS011;58477;48.072;11.970;2023-07-31T14:20:14;1.00;;;0.90;;
65206;SDS011;58477;48.072;11.970;2023-07-31T14:22:40;1.00;;;0.90;;
65206;SDS011;58477;48.072;11.970;2023-07-31T14:25:05;1.83;;;1.13;;
65206;SDS011;58477;48.072;11.970;2023-07-31T14:27:31;1.20;;;0.82;;
65206;SDS011;58477;48.072;11.970;2023-07-31T14:29:57;1.75;;;1.00;;
65206;SDS011;58477;48.072;11.970;2023-07-31T14:32:22;1.00;;;0.90;;
65206;SDS011;58477;48.072;11.970;2023-07-31T14:34:51;0.98;;;0.90;;
65206;SDS011;58477;48.072;11.970;2023-07-31T14:37:17;2.03;;;1.45;;
65206;SDS011;58477;48.072;11.970;2023-07-31T14:39:42;1.30;;;1.00;;
65206;SDS011;58477;48.072;11.970;2023-07-31T14:42:08;1.17;;;0.85;;
65206;SDS011;58477;48.072;11.970;2023-07-31T14:44:34;1.45;;;0.95;;
65206;SDS011;58477;48.072;11.970;2023-07-31T14:46:59;2.97;;;1.20;;